sensor_id;sensor_type;location;lat;lon;timestamp;P1;durP1;ratioP1;P2;durP2;ratioP2
71462;SDS011;59266;52.608;13.260;2023-12-28T00:00:49;10.30;;;3.72;;
71462;SDS011;59266;52.608;13.260;2023-12-28T00:03:16;14.35;;;3.67;;
71462;SDS011;59266;52.608;13.260;2023-12-28T00:05:43;9.85;;;3.80;;
71462;SDS011;59266;52.608;13.260;2023-12-28T00:08:11;12.95;;;3.70;;
71462;SDS011;59266;52.608;13.260;2023-12-28T00:10:38;11.18;;;4.03;;
71462;SDS011;59266;52.608;13.260;2023-12-28T00:13:05;11.35;;;3.90;;
71462;SDS011;59266;52.608;13.260;2023-12-28T00:15:33;8.93;;;3.40;;
71462;SDS011;59266;52.608;13.260;2023-12-28T00:18:05;12.57;;;3.63;;
71462;SDS011;59266;52.608;13.260;2023-12-28T00:20:32;10.40;;;3.63;;
71462;SDS011;59266;52.608;13.260;2023-12-28T00:23:01;11.63;;;3.63;;
71462;SDS011;59266;52.608;13.260;2023-12-28T00:25:28;12.10;;;3.60;;
71462;SDS011;59266;52.608;13.260;2023-12-28T00:27:55;7.80;;;3.03;;
71462;SDS011;59266;52.608;13.260;2023-12-28T00:30:22;9.98;;;3.17;;
71462;SDS011;59266;52.608;13.260;2023-12-28T00:32:49;13.10;;;3.45;;
71462;SDS011;59266;52.608;13.260;2023-12-28T00:35:16;9.05;;;3.22;;
71462;SDS011;59266;52.608;13.260;2023-12-28T00:37:42;10.68;;;3.10;;
71462;SDS011;59266;52.608;13.260;2023-12-28T00:40:09;10.38;;;3.10;;
71462;SDS011;59266;52.608;13.260;2023-12-28T00:42:36;9.05;;;3.13;;
71462;SDS011;59266;52.608;13.260;2023-12-28T00:45:03;8.55;;;3.10;;
71462;SDS011;59266;52.608;13.260;2023-12-28T00:47:30;9.68;;;3.55;;
71462;SDS011;59266;52.608;13.260;2023-12-28T00:49:57;9.90;;;3.50;;
71462;SDS011;59266;52.608;13.260;2023-12-28T00:52:24;9.57;;;3.10;;
71462;SDS011;59266;52.608;13.260;2023-12-28T00:54:55;10.55;;;3.15;;
71462;SDS011;59266;52.608;13.260;2023-12-28T00:57:21;9.18;;;2.85;;
71462;SDS011;59266;52.608;13.260;2023-12-28T00:59:48;11.75;;;3.30;;
71462;SDS011;59266;52.608;13.260;2023-12-28T01:02:16;10.13;;;3.10;;
71462;SDS011;59266;52.608;13.260;2023-12-28T01:04:43;7.82;;;3.20;;
71462;SDS011;59266;52.608;13.260;2023-12-28T01:07:10;11.13;;;3.75;;
71462;SDS011;59266;52.608;13.260;2023-12-28T01:09:37;13.13;;;3.50;;
71462;SDS011;59266;52.608;13.260;2023-12-28T01:12:06;16.00;;;4.35;;
71462;SDS011;59266;52.608;13.260;2023-12-28T01:14:33;10.63;;;3.53;;
71462;SDS011;59266;52.608;13.260;2023-12-28T01:16:59;8.90;;;3.25;;
71462;SDS011;59266;52.608;13.260;2023-12-28T01:19:26;10.75;;;4.13;;
71462;SDS011;59266;52.608;13.260;2023-12-28T01:21:53;8.38;;;3.10;;
71462;SDS011;59266;52.608;13.260;2023-12-28T01:24:20;8.38;;;2.60;;
71462;SDS011;59266;52.608;13.260;2023-12-28T01:26:47;10.55;;;2.75;;
71462;SDS011;59266;52.608;13.260;2023-12-28T01:29:14;7.45;;;2.50;;
71462;SDS011;59266;52.608;13.260;2023-12-28T01:31:41;8.98;;;2.72;;
71462;SDS011;59266;52.608;13.260;2023-12-28T01:34:10;6.82;;;2.10;;
71462;SDS011;59266;52.608;13.260;2023-12-28T01:36:39;7.85;;;2.17;;
71462;SDS011;59266;52.608;13.260;2023-12-28T01:39:09;9.98;;;2.45;;
71462;SDS011;59266;52.608;13.260;2023-12-28T01:41:37;7.78;;;2.42;;
71462;SDS011;59266;52.608;13.260;2023-12-28T01:44:04;8.55;;;2.78;;
71462;SDS011;59266;52.608;13.260;2023-12-28T01:46:31;8.07;;;2.40;;
71462;SDS011;59266;52.608;13.260;2023-12-28T01:48:58;9.85;;;2.50;;
71462;SDS011;59266;52.608;13.260;2023-12-28T01:51:26;8.35;;;2.45;;
71462;SDS011;59266;52.608;13.260;2023-12-28T01:53:54;6.38;;;2.40;;
71462;SDS011;59266;52.608;13.260;2023-12-28T01:56:21;8.27;;;2.17;;
71462;SDS011;59266;52.608;13.260;2023-12-28T01:58:49;9.20;;;3.08;;
71462;SDS011;59266;52.608;13.260;2023-12-28T02:01:16;6.28;;;2.10;;
71462;SDS011;59266;52.608;13.260;2023-12-28T02:03:44;7.28;;;2.47;;
71462;SDS011;59266;52.608;13.260;2023-12-28T02:06:11;6.50;;;2.08;;
71462;SDS011;59266;52.608;13.260;2023-12-28T02:08:42;9.35;;;2.40;;
71462;SDS011;59266;52.608;13.260;2023-12-28T02:11:09;7.63;;;2.15;;
71462;SDS011;59266;52.608;13.260;2023-12-28T02:13:36;8.57;;;2.00;;
71462;SDS011;59266;52.608;13.260;2023-12-28T02:16:23;6.47;;;2.10;;
71462;SDS011;59266;52.608;13.260;2023-12-28T02:18:56;6.25;;;2.10;;
71462;SDS011;59266;52.608;13.260;2023-12-28T02:21:24;6.80;;;2.38;;
71462;SDS011;59266;52.608;13.260;2023-12-28T02:23:51;7.38;;;2.10;;
71462;SDS011;59266;52.608;13.260;2023-12-28T02:26:18;9.40;;;2.10;;
71462;SDS011;59266;52.608;13.260;2023-12-28T02:28:45;9.15;;;2.22;;
71462;SDS011;59266;52.608;13.260;2023-12-28T02:31:21;5.13;;;2.00;;
71462;SDS011;59266;52.608;13.260;2023-12-28T02:33:55;7.18;;;2.00;;
71462;SDS011;59266;52.608;13.260;2023-12-28T02:36:28;9.00;;;2.15;;
71462;SDS011;59266;52.608;13.260;2023-12-28T02:38:55;7.05;;;2.00;;
71462;SDS011;59266;52.608;13.260;2023-12-28T02:41:25;6.18;;;1.83;;
71462;SDS011;59266;52.608;13.260;2023-12-28T02:43:54;6.25;;;1.63;;
71462;SDS011;59266;52.608;13.260;2023-12-28T02:46:22;6.97;;;1.90;;
71462;SDS011;59266;52.608;13.260;2023-12-28T02:48:50;6.38;;;1.95;;
71462;SDS011;59266;52.608;13.260;2023-12-28T02:51:19;5.53;;;1.88;;
71462;SDS011;59266;52.608;13.260;2023-12-28T02:53:45;5.75;;;1.70;;
71462;SDS011;59266;52.608;13.260;2023-12-28T02:56:13;5.65;;;1.77;;
71462;SDS011;59266;52.608;13.260;2023-12-28T02:58:39;6.63;;;1.70;;
71462;SDS011;59266;52.608;13.260;2023-12-28T03:01:06;4.65;;;1.48;;
71462;SDS011;59266;52.608;13.260;2023-12-28T03:03:34;5.28;;;1.90;;
71462;SDS011;59266;52.608;13.260;2023-12-28T03:06:00;6.90;;;1.50;;
71462;SDS011;59266;52.608;13.260;2023-12-28T03:08:27;2.97;;;1.20;;
71462;SDS011;59266;52.608;13.260;2023-12-28T03:10:54;6.72;;;1.70;;
71462;SDS011;59266;52.608;13.260;2023-12-28T03:13:21;6.43;;;1.67;;
71462;SDS011;59266;52.608;13.260;2023-12-28T03:15:48;5.13;;;1.50;;
71462;SDS011;59266;52.608;13.260;2023-12-28T03:18:14;4.93;;;1.42;;
71462;SDS011;59266;52.608;13.260;2023-12-28T03:20:41;5.38;;;1.52;;
71462;SDS011;59266;52.608;13.260;2023-12-28T03:23:11;7.70;;;1.50;;
71462;SDS011;59266;52.608;13.260;2023-12-28T03:25:38;6.43;;;1.98;;
71462;SDS011;59266;52.608;13.260;2023-12-28T03:28:05;4.82;;;1.40;;
71462;SDS011;59266;52.608;13.260;2023-12-28T03:30:31;4.30;;;1.40;;
71462;SDS011;59266;52.608;13.260;2023-12-28T03:32:58;4.03;;;1.25;;
71462;SDS011;59266;52.608;13.260;2023-12-28T03:35:25;4.63;;;1.30;;
71462;SDS011;59266;52.608;13.260;2023-12-28T03:37:51;2.70;;;1.10;;
71462;SDS011;59266;52.608;13.260;2023-12-28T03:40:18;5.22;;;1.40;;
71462;SDS011;59266;52.608;13.260;2023-12-28T03:42:45;4.45;;;1.20;;
71462;SDS011;59266;52.608;13.260;2023-12-28T03:45:12;4.47;;;1.50;;
71462;SDS011;59266;52.608;13.260;2023-12-28T03:47:39;4.88;;;1.23;;
71462;SDS011;59266;52.608;13.260;2023-12-28T03:50:06;5.30;;;1.48;;
71462;SDS011;59266;52.608;13.260;2023-12-28T03:52:33;6.57;;;1.40;;
71462;SDS011;59266;52.608;13.260;2023-12-28T03:55:00;4.38;;;1.40;;
71462;SDS011;59266;52.608;13.260;2023-12-28T03:57:29;5.22;;;1.50;;
71462;SDS011;59266;52.608;13.260;2023-12-28T03:59:56;5.38;;;1.30;;
71462;SDS011;59266;52.608;13.260;2023-12-28T04:02:23;5.90;;;1.70;;
71462;SDS011;59266;52.608;13.260;2023-12-28T04:04:51;3.75;;;1.38;;
71462;SDS011;59266;52.608;13.260;2023-12-28T04:07:18;4.45;;;1.55;;
71462;SDS011;59266;52.608;13.260;2023-12-28T04:09:45;5.70;;;1.58;;
71462;SDS011;59266;52.608;13.260;2023-12-28T04:12:12;3.92;;;1.33;;
71462;SDS011;59266;52.608;13.260;2023-12-28T04:14:39;5.00;;;1.30;;
71462;SDS011;59266;52.608;13.260;2023-12-28T04:17:07;3.05;;;1.02;;
71462;SDS011;59266;52.608;13.260;2023-12-28T04:19:34;4.20;;;1.52;;
71462;SDS011;59266;52.608;13.260;2023-12-28T04:22:08;4.40;;;1.58;;
71462;SDS011;59266;52.608;13.260;2023-12-28T04:24:36;7.15;;;1.60;;
71462;SDS011;59266;52.608;13.260;2023-12-28T04:27:03;3.67;;;1.20;;
71462;SDS011;59266;52.608;13.260;2023-12-28T04:29:30;6.13;;;1.40;;
71462;SDS011;59266;52.608;13.260;2023-12-28T04:31:58;3.95;;;1.30;;
71462;SDS011;59266;52.608;13.260;2023-12-28T04:34:25;5.28;;;1.55;;
71462;SDS011;59266;52.608;13.260;2023-12-28T04:36:52;5.25;;;1.60;;
71462;SDS011;59266;52.608;13.260;2023-12-28T04:39:19;4.85;;;1.60;;
71462;SDS011;59266;52.608;13.260;2023-12-28T04:41:46;6.10;;;1.48;;
71462;SDS011;59266;52.608;13.260;2023-12-28T04:44:12;4.00;;;1.30;;
71462;SDS011;59266;52.608;13.260;2023-12-28T04:46:39;3.40;;;1.20;;
71462;SDS011;59266;52.608;13.260;2023-12-28T04:49:10;5.65;;;1.67;;
71462;SDS011;59266;52.608;13.260;2023-12-28T04:51:42;4.28;;;1.30;;
71462;SDS011;59266;52.608;13.260;2023-12-28T04:56:37;4.63;;;1.52;;
71462;SDS011;59266;52.608;13.260;2023-12-28T04:59:04;5.13;;;1.50;;
71462;SDS011;59266;52.608;13.260;2023-12-28T05:01:30;4.03;;;1.20;;
71462;SDS011;59266;52.608;13.260;2023-12-28T05:03:59;4.22;;;1.35;;
71462;SDS011;59266;52.608;13.260;2023-12-28T05:06:27;4.30;;;1.40;;
71462;SDS011;59266;52.608;13.260;2023-12-28T05:08:56;4.97;;;1.40;;
71462;SDS011;59266;52.608;13.260;2023-12-28T05:11:22;5.70;;;1.58;;
71462;SDS011;59266;52.608;13.260;2023-12-28T05:13:49;3.97;;;1.10;;
71462;SDS011;59266;52.608;13.260;2023-12-28T05:16:16;4.32;;;1.42;;
71462;SDS011;59266;52.608;13.260;2023-12-28T05:18:42;5.03;;;1.50;;
71462;SDS011;59266;52.608;13.260;2023-12-28T05:21:10;6.53;;;1.50;;
71462;SDS011;59266;52.608;13.260;2023-12-28T05:23:38;4.03;;;1.30;;
71462;SDS011;59266;52.608;13.260;2023-12-28T05:26:06;4.07;;;1.52;;
71462;SDS011;59266;52.608;13.260;2023-12-28T05:28:32;4.45;;;1.35;;
71462;SDS011;59266;52.608;13.260;2023-12-28T05:30:59;3.20;;;1.13;;
71462;SDS011;59266;52.608;13.260;2023-12-28T05:33:26;3.53;;;1.23;;
71462;SDS011;59266;52.608;13.260;2023-12-28T05:35:53;3.72;;;1.23;;
71462;SDS011;59266;52.608;13.260;2023-12-28T05:38:20;5.97;;;1.50;;
71462;SDS011;59266;52.608;13.260;2023-12-28T05:40:46;5.63;;;1.83;;
71462;SDS011;59266;52.608;13.260;2023-12-28T05:43:14;5.03;;;1.50;;
71462;SDS011;59266;52.608;13.260;2023-12-28T05:45:40;4.38;;;1.40;;
71462;SDS011;59266;52.608;13.260;2023-12-28T05:48:07;6.18;;;1.52;;
71462;SDS011;59266;52.608;13.260;2023-12-28T05:50:37;4.00;;;1.20;;
71462;SDS011;59266;52.608;13.260;2023-12-28T05:53:04;4.07;;;1.40;;
71462;SDS011;59266;52.608;13.260;2023-12-28T05:55:30;3.40;;;1.20;;
71462;SDS011;59266;52.608;13.260;2023-12-28T05:57:57;4.13;;;1.27;;
71462;SDS011;59266;52.608;13.260;2023-12-28T06:00:26;4.22;;;1.50;;
71462;SDS011;59266;52.608;13.260;2023-12-28T06:02:53;4.90;;;1.33;;
71462;SDS011;59266;52.608;13.260;2023-12-28T06:05:20;3.58;;;1.17;;
71462;SDS011;59266;52.608;13.260;2023-12-28T06:07:47;3.65;;;1.33;;
71462;SDS011;59266;52.608;13.260;2023-12-28T06:10:13;4.53;;;1.30;;
71462;SDS011;59266;52.608;13.260;2023-12-28T06:12:40;7.55;;;1.38;;
71462;SDS011;59266;52.608;13.260;2023-12-28T06:15:07;3.75;;;1.30;;
71462;SDS011;59266;52.608;13.260;2023-12-28T06:17:34;5.85;;;1.40;;
71462;SDS011;59266;52.608;13.260;2023-12-28T06:20:01;4.68;;;1.27;;
71462;SDS011;59266;52.608;13.260;2023-12-28T06:22:28;5.22;;;1.42;;
71462;SDS011;59266;52.608;13.260;2023-12-28T06:24:59;5.35;;;1.55;;
71462;SDS011;59266;52.608;13.260;2023-12-28T06:27:26;4.70;;;1.40;;
71462;SDS011;59266;52.608;13.260;2023-12-28T06:29:52;4.70;;;1.55;;
71462;SDS011;59266;52.608;13.260;2023-12-28T06:32:19;4.07;;;1.20;;
71462;SDS011;59266;52.608;13.260;2023-12-28T06:34:49;4.88;;;1.58;;
71462;SDS011;59266;52.608;13.260;2023-12-28T06:37:17;4.47;;;1.40;;
71462;SDS011;59266;52.608;13.260;2023-12-28T06:39:44;4.53;;;1.30;;
71462;SDS011;59266;52.608;13.260;2023-12-28T06:42:10;4.80;;;1.50;;
71462;SDS011;59266;52.608;13.260;2023-12-28T06:44:37;5.75;;;1.50;;
71462;SDS011;59266;52.608;13.260;2023-12-28T06:47:04;6.55;;;1.60;;
71462;SDS011;59266;52.608;13.260;2023-12-28T06:49:31;4.53;;;1.50;;
71462;SDS011;59266;52.608;13.260;2023-12-28T06:51:59;5.82;;;1.60;;
71462;SDS011;59266;52.608;13.260;2023-12-28T06:54:26;5.75;;;1.40;;
71462;SDS011;59266;52.608;13.260;2023-12-28T06:56:56;4.65;;;1.40;;
71462;SDS011;59266;52.608;13.260;2023-12-28T06:59:23;4.53;;;1.40;;
71462;SDS011;59266;52.608;13.260;2023-12-28T07:01:53;5.97;;;1.60;;
71462;SDS011;59266;52.608;13.260;2023-12-28T07:04:20;7.30;;;1.50;;
71462;SDS011;59266;52.608;13.260;2023-12-28T07:06:49;3.58;;;1.40;;
71462;SDS011;59266;52.608;13.260;2023-12-28T07:09:15;5.18;;;1.52;;
71462;SDS011;59266;52.608;13.260;2023-12-28T07:11:42;4.07;;;1.30;;
71462;SDS011;59266;52.608;13.260;2023-12-28T07:14:08;5.10;;;1.60;;
71462;SDS011;59266;52.608;13.260;2023-12-28T07:16:35;6.43;;;1.42;;
71462;SDS011;59266;52.608;13.260;2023-12-28T07:19:02;7.28;;;1.88;;
71462;SDS011;59266;52.608;13.260;2023-12-28T07:21:31;5.18;;;1.40;;
71462;SDS011;59266;52.608;13.260;2023-12-28T07:23:57;4.75;;;1.27;;
71462;SDS011;59266;52.608;13.260;2023-12-28T07:26:24;5.15;;;1.40;;
71462;SDS011;59266;52.608;13.260;2023-12-28T07:28:51;6.75;;;1.42;;
71462;SDS011;59266;52.608;13.260;2023-12-28T07:31:24;5.35;;;1.58;;
71462;SDS011;59266;52.608;13.260;2023-12-28T07:33:51;4.63;;;1.50;;
71462;SDS011;59266;52.608;13.260;2023-12-28T07:36:18;6.55;;;1.58;;
71462;SDS011;59266;52.608;13.260;2023-12-28T07:40:18;5.10;;;1.60;;
71462;SDS011;59266;52.608;13.260;2023-12-28T07:42:45;4.82;;;1.60;;
71462;SDS011;59266;52.608;13.260;2023-12-28T07:45:11;5.22;;;1.60;;
71462;SDS011;59266;52.608;13.260;2023-12-28T07:47:38;4.88;;;1.70;;
71462;SDS011;59266;52.608;13.260;2023-12-28T07:50:05;5.93;;;1.90;;
71462;SDS011;59266;52.608;13.260;2023-12-28T07:52:32;5.35;;;1.80;;
71462;SDS011;59266;52.608;13.260;2023-12-28T07:54:58;5.55;;;1.83;;
71462;SDS011;59266;52.608;13.260;2023-12-28T07:57:25;6.10;;;1.67;;
71462;SDS011;59266;52.608;13.260;2023-12-28T07:59:52;6.00;;;1.67;;
71462;SDS011;59266;52.608;13.260;2023-12-28T08:02:18;7.07;;;1.77;;
71462;SDS011;59266;52.608;13.260;2023-12-28T08:04:47;5.40;;;1.63;;
71462;SDS011;59266;52.608;13.260;2023-12-28T08:07:14;6.05;;;1.75;;
71462;SDS011;59266;52.608;13.260;2023-12-28T08:09:40;7.15;;;2.00;;
71462;SDS011;59266;52.608;13.260;2023-12-28T08:12:07;4.82;;;1.40;;
71462;SDS011;59266;52.608;13.260;2023-12-28T08:14:33;5.32;;;1.88;;
71462;SDS011;59266;52.608;13.260;2023-12-28T08:17:00;6.63;;;1.92;;
71462;SDS011;59266;52.608;13.260;2023-12-28T08:19:26;4.82;;;1.60;;
71462;SDS011;59266;52.608;13.260;2023-12-28T08:32:03;4.65;;;1.70;;
71462;SDS011;59266;52.608;13.260;2023-12-28T08:34:30;4.30;;;1.42;;
71462;SDS011;59266;52.608;13.260;2023-12-28T08:36:57;5.25;;;1.40;;
71462;SDS011;59266;52.608;13.260;2023-12-28T08:39:24;5.28;;;1.80;;
71462;SDS011;59266;52.608;13.260;2023-12-28T08:41:50;4.97;;;1.63;;
71462;SDS011;59266;52.608;13.260;2023-12-28T08:44:17;6.10;;;1.90;;
71462;SDS011;59266;52.608;13.260;2023-12-28T08:46:43;4.53;;;1.58;;
71462;SDS011;59266;52.608;13.260;2023-12-28T08:49:10;4.82;;;1.50;;
71462;SDS011;59266;52.608;13.260;2023-12-28T08:51:37;4.85;;;1.50;;
71462;SDS011;59266;52.608;13.260;2023-12-28T08:54:06;6.63;;;2.05;;
71462;SDS011;59266;52.608;13.260;2023-12-28T08:56:34;5.00;;;1.75;;
71462;SDS011;59266;52.608;13.260;2023-12-28T08:59:01;7.05;;;2.10;;
71462;SDS011;59266;52.608;13.260;2023-12-28T09:01:27;5.13;;;1.70;;
71462;SDS011;59266;52.608;13.260;2023-12-28T09:03:56;4.72;;;1.65;;
71462;SDS011;59266;52.608;13.260;2023-12-28T09:06:24;5.30;;;1.80;;
71462;SDS011;59266;52.608;13.260;2023-12-28T09:08:51;5.22;;;2.13;;
71462;SDS011;59266;52.608;13.260;2023-12-28T09:11:18;5.93;;;1.75;;
71462;SDS011;59266;52.608;13.260;2023-12-28T09:13:45;6.43;;;2.10;;
71462;SDS011;59266;52.608;13.260;2023-12-28T09:16:13;6.38;;;2.10;;
71462;SDS011;59266;52.608;13.260;2023-12-28T09:18:41;4.57;;;1.75;;
71462;SDS011;59266;52.608;13.260;2023-12-28T09:23:54;6.05;;;1.98;;
71462;SDS011;59266;52.608;13.260;2023-12-28T09:26:21;4.68;;;1.75;;
71462;SDS011;59266;52.608;13.260;2023-12-28T09:28:47;6.45;;;1.92;;
71462;SDS011;59266;52.608;13.260;2023-12-28T09:31:17;4.93;;;1.90;;
71462;SDS011;59266;52.608;13.260;2023-12-28T09:33:43;5.82;;;2.03;;
71462;SDS011;59266;52.608;13.260;2023-12-28T09:36:10;6.63;;;1.75;;
71462;SDS011;59266;52.608;13.260;2023-12-28T09:38:39;7.82;;;1.80;;
71462;SDS011;59266;52.608;13.260;2023-12-28T09:41:11;6.45;;;2.03;;
71462;SDS011;59266;52.608;13.260;2023-12-28T09:44:10;6.38;;;1.90;;
71462;SDS011;59266;52.608;13.260;2023-12-28T09:46:41;5.40;;;1.90;;
71462;SDS011;59266;52.608;13.260;2023-12-28T09:49:08;5.20;;;1.80;;
71462;SDS011;59266;52.608;13.260;2023-12-28T09:55:16;6.38;;;1.77;;
71462;SDS011;59266;52.608;13.260;2023-12-28T09:57:43;5.10;;;1.80;;
71462;SDS011;59266;52.608;13.260;2023-12-28T10:00:10;4.95;;;1.92;;
71462;SDS011;59266;52.608;13.260;2023-12-28T10:02:43;5.38;;;1.77;;
71462;SDS011;59266;52.608;13.260;2023-12-28T10:05:12;7.85;;;2.00;;
71462;SDS011;59266;52.608;13.260;2023-12-28T10:07:41;5.63;;;1.90;;
71462;SDS011;59266;52.608;13.260;2023-12-28T10:10:11;6.97;;;2.30;;
71462;SDS011;59266;52.608;13.260;2023-12-28T10:12:38;5.25;;;1.98;;
71462;SDS011;59266;52.608;13.260;2023-12-28T10:15:05;6.45;;;2.08;;
71462;SDS011;59266;52.608;13.260;2023-12-28T10:17:32;5.13;;;1.60;;
71462;SDS011;59266;52.608;13.260;2023-12-28T10:20:03;5.07;;;2.00;;
71462;SDS011;59266;52.608;13.260;2023-12-28T10:22:32;4.82;;;1.77;;
71462;SDS011;59266;52.608;13.260;2023-12-28T10:25:02;6.95;;;1.95;;
71462;SDS011;59266;52.608;13.260;2023-12-28T10:27:29;7.75;;;2.70;;
71462;SDS011;59266;52.608;13.260;2023-12-28T10:29:56;5.50;;;1.80;;
71462;SDS011;59266;52.608;13.260;2023-12-28T10:32:23;6.72;;;2.13;;
71462;SDS011;59266;52.608;13.260;2023-12-28T10:34:51;6.55;;;1.98;;
71462;SDS011;59266;52.608;13.260;2023-12-28T10:37:20;4.32;;;1.63;;
71462;SDS011;59266;52.608;13.260;2023-12-28T10:39:48;5.55;;;1.80;;
71462;SDS011;59266;52.608;13.260;2023-12-28T10:42:30;5.63;;;1.83;;
71462;SDS011;59266;52.608;13.260;2023-12-28T10:45:02;6.80;;;1.95;;
71462;SDS011;59266;52.608;13.260;2023-12-28T10:47:32;5.90;;;2.10;;
71462;SDS011;59266;52.608;13.260;2023-12-28T10:50:03;6.32;;;1.88;;
71462;SDS011;59266;52.608;13.260;2023-12-28T10:52:34;5.20;;;2.20;;
71462;SDS011;59266;52.608;13.260;2023-12-28T10:55:10;6.88;;;1.80;;
71462;SDS011;59266;52.608;13.260;2023-12-28T10:57:56;5.90;;;1.92;;
71462;SDS011;59266;52.608;13.260;2023-12-28T11:00:30;5.00;;;1.83;;
71462;SDS011;59266;52.608;13.260;2023-12-28T11:03:06;6.53;;;1.95;;
71462;SDS011;59266;52.608;13.260;2023-12-28T11:05:37;5.28;;;1.80;;
71462;SDS011;59266;52.608;13.260;2023-12-28T11:08:07;6.75;;;2.10;;
71462;SDS011;59266;52.608;13.260;2023-12-28T11:10:35;6.85;;;2.03;;
71462;SDS011;59266;52.608;13.260;2023-12-28T11:13:03;6.20;;;2.25;;
71462;SDS011;59266;52.608;13.260;2023-12-28T11:15:31;5.50;;;1.88;;
71462;SDS011;59266;52.608;13.260;2023-12-28T11:17:58;5.70;;;2.00;;
71462;SDS011;59266;52.608;13.260;2023-12-28T11:20:25;6.18;;;1.73;;
71462;SDS011;59266;52.608;13.260;2023-12-28T11:22:52;5.68;;;1.90;;
71462;SDS011;59266;52.608;13.260;2023-12-28T11:25:19;5.13;;;1.77;;
71462;SDS011;59266;52.608;13.260;2023-12-28T11:27:45;6.32;;;2.17;;
71462;SDS011;59266;52.608;13.260;2023-12-28T11:30:13;7.25;;;2.03;;
71462;SDS011;59266;52.608;13.260;2023-12-28T11:32:40;6.03;;;2.15;;
71462;SDS011;59266;52.608;13.260;2023-12-28T11:35:10;5.13;;;1.60;;
71462;SDS011;59266;52.608;13.260;2023-12-28T11:37:38;5.75;;;2.10;;
71462;SDS011;59266;52.608;13.260;2023-12-28T11:40:11;6.53;;;2.00;;
71462;SDS011;59266;52.608;13.260;2023-12-28T11:42:53;5.93;;;1.80;;
71462;SDS011;59266;52.608;13.260;2023-12-28T11:45:24;5.15;;;1.80;;
71462;SDS011;59266;52.608;13.260;2023-12-28T11:48:01;5.45;;;1.88;;
71462;SDS011;59266;52.608;13.260;2023-12-28T11:53:51;8.40;;;1.90;;
71462;SDS011;59266;52.608;13.260;2023-12-28T11:56:19;8.20;;;1.85;;
71462;SDS011;59266;52.608;13.260;2023-12-28T11:58:45;5.63;;;1.88;;
71462;SDS011;59266;52.608;13.260;2023-12-28T12:01:15;5.10;;;1.73;;
71462;SDS011;59266;52.608;13.260;2023-12-28T12:03:41;5.85;;;1.77;;
71462;SDS011;59266;52.608;13.260;2023-12-28T12:06:08;5.80;;;1.80;;
71462;SDS011;59266;52.608;13.260;2023-12-28T12:08:35;5.03;;;1.80;;
71462;SDS011;59266;52.608;13.260;2023-12-28T12:11:02;6.55;;;1.90;;
71462;SDS011;59266;52.608;13.260;2023-12-28T12:13:31;6.82;;;1.80;;
71462;SDS011;59266;52.608;13.260;2023-12-28T12:15:58;8.10;;;2.10;;
71462;SDS011;59266;52.608;13.260;2023-12-28T12:18:25;7.10;;;2.00;;
71462;SDS011;59266;52.608;13.260;2023-12-28T12:20:52;6.97;;;1.92;;
71462;SDS011;59266;52.608;13.260;2023-12-28T12:23:19;8.93;;;1.88;;
71462;SDS011;59266;52.608;13.260;2023-12-28T12:25:46;6.25;;;1.90;;
71462;SDS011;59266;52.608;13.260;2023-12-28T12:28:13;10.23;;;2.00;;
71462;SDS011;59266;52.608;13.260;2023-12-28T12:30:48;5.72;;;1.80;;
71462;SDS011;59266;52.608;13.260;2023-12-28T12:33:17;5.60;;;1.73;;
71462;SDS011;59266;52.608;13.260;2023-12-28T12:35:44;4.78;;;1.60;;
71462;SDS011;59266;52.608;13.260;2023-12-28T12:38:10;6.15;;;1.80;;
71462;SDS011;59266;52.608;13.260;2023-12-28T12:40:37;5.13;;;1.95;;
71462;SDS011;59266;52.608;13.260;2023-12-28T12:43:04;8.38;;;1.92;;
71462;SDS011;59266;52.608;13.260;2023-12-28T12:45:35;5.10;;;2.30;;
71462;SDS011;59266;52.608;13.260;2023-12-28T12:48:02;5.65;;;1.70;;
71462;SDS011;59266;52.608;13.260;2023-12-28T12:50:31;6.80;;;1.70;;
71462;SDS011;59266;52.608;13.260;2023-12-28T12:53:01;5.82;;;2.33;;
71462;SDS011;59266;52.608;13.260;2023-12-28T12:55:27;5.05;;;1.70;;
71462;SDS011;59266;52.608;13.260;2023-12-28T12:57:55;4.88;;;1.60;;
71462;SDS011;59266;52.608;13.260;2023-12-28T13:00:22;6.25;;;1.73;;
71462;SDS011;59266;52.608;13.260;2023-12-28T13:02:50;5.53;;;1.60;;
71462;SDS011;59266;52.608;13.260;2023-12-28T13:05:17;7.80;;;1.88;;
71462;SDS011;59266;52.608;13.260;2023-12-28T13:07:44;6.40;;;2.00;;
71462;SDS011;59266;52.608;13.260;2023-12-28T13:10:10;8.05;;;2.28;;
71462;SDS011;59266;52.608;13.260;2023-12-28T13:12:37;8.77;;;1.80;;
71462;SDS011;59266;52.608;13.260;2023-12-28T13:15:04;5.10;;;1.73;;
71462;SDS011;59266;52.608;13.260;2023-12-28T13:17:32;5.93;;;1.85;;
71462;SDS011;59266;52.608;13.260;2023-12-28T13:19:59;6.85;;;1.77;;
71462;SDS011;59266;52.608;13.260;2023-12-28T13:22:25;6.53;;;1.85;;
71462;SDS011;59266;52.608;13.260;2023-12-28T13:24:52;5.35;;;1.65;;
71462;SDS011;59266;52.608;13.260;2023-12-28T13:27:19;4.05;;;1.60;;
71462;SDS011;59266;52.608;13.260;2023-12-28T13:29:46;6.03;;;1.60;;
71462;SDS011;59266;52.608;13.260;2023-12-28T13:32:13;4.70;;;1.83;;
71462;SDS011;59266;52.608;13.260;2023-12-28T13:34:40;9.45;;;1.95;;
71462;SDS011;59266;52.608;13.260;2023-12-28T13:37:07;6.65;;;1.70;;
71462;SDS011;59266;52.608;13.260;2023-12-28T13:39:35;5.05;;;1.60;;
71462;SDS011;59266;52.608;13.260;2023-12-28T13:42:06;6.15;;;1.60;;
71462;SDS011;59266;52.608;13.260;2023-12-28T13:44:33;7.95;;;2.10;;
71462;SDS011;59266;52.608;13.260;2023-12-28T13:47:02;7.05;;;1.70;;
71462;SDS011;59266;52.608;13.260;2023-12-28T13:49:32;6.18;;;1.70;;
71462;SDS011;59266;52.608;13.260;2023-12-28T13:52:00;5.18;;;1.90;;
71462;SDS011;59266;52.608;13.260;2023-12-28T13:54:27;7.47;;;1.70;;
71462;SDS011;59266;52.608;13.260;2023-12-28T13:56:54;5.78;;;1.60;;
71462;SDS011;59266;52.608;13.260;2023-12-28T13:59:24;7.40;;;1.77;;
71462;SDS011;59266;52.608;13.260;2023-12-28T14:01:50;6.45;;;2.00;;
71462;SDS011;59266;52.608;13.260;2023-12-28T14:04:18;10.50;;;2.53;;
71462;SDS011;59266;52.608;13.260;2023-12-28T14:06:45;4.82;;;1.70;;
71462;SDS011;59266;52.608;13.260;2023-12-28T14:09:11;5.63;;;1.60;;
71462;SDS011;59266;52.608;13.260;2023-12-28T14:11:38;7.15;;;2.20;;
71462;SDS011;59266;52.608;13.260;2023-12-28T14:14:05;6.57;;;1.85;;
71462;SDS011;59266;52.608;13.260;2023-12-28T14:16:32;7.10;;;1.80;;
71462;SDS011;59266;52.608;13.260;2023-12-28T14:18:59;5.55;;;1.90;;
71462;SDS011;59266;52.608;13.260;2023-12-28T14:24:30;7.35;;;1.60;;
71462;SDS011;59266;52.608;13.260;2023-12-28T14:26:57;5.53;;;1.90;;
71462;SDS011;59266;52.608;13.260;2023-12-28T14:29:23;6.38;;;1.80;;
71462;SDS011;59266;52.608;13.260;2023-12-28T14:31:50;7.13;;;1.85;;
71462;SDS011;59266;52.608;13.260;2023-12-28T14:34:18;7.13;;;2.05;;
71462;SDS011;59266;52.608;13.260;2023-12-28T14:36:45;5.70;;;1.90;;
71462;SDS011;59266;52.608;13.260;2023-12-28T14:39:16;6.18;;;1.90;;
71462;SDS011;59266;52.608;13.260;2023-12-28T14:41:46;6.63;;;2.03;;
71462;SDS011;59266;52.608;13.260;2023-12-28T14:44:12;6.65;;;1.92;;
71462;SDS011;59266;52.608;13.260;2023-12-28T14:46:39;7.32;;;1.67;;
71462;SDS011;59266;52.608;13.260;2023-12-28T14:49:06;5.03;;;1.80;;
71462;SDS011;59266;52.608;13.260;2023-12-28T14:51:32;5.15;;;1.65;;
71462;SDS011;59266;52.608;13.260;2023-12-28T14:53:59;4.95;;;1.70;;
71462;SDS011;59266;52.608;13.260;2023-12-28T14:56:25;6.53;;;1.85;;
71462;SDS011;59266;52.608;13.260;2023-12-28T14:59:01;5.53;;;1.73;;
71462;SDS011;59266;52.608;13.260;2023-12-28T15:01:28;6.28;;;1.85;;
71462;SDS011;59266;52.608;13.260;2023-12-28T15:03:55;5.88;;;1.83;;